ウラジオストク の空港の天気 - METARとTAF

ウラジオストク空港 ( UHWW / VVO ) - ロシア ウラジオストク
飛行場実況気象(Metar)
観測時間04/19 21:30 VLAT (04/19 11:30 UTC)
風向・風速不定 1m/s
視程9000m
天気現象
全天を覆う雲 雲底高度 1220m
気温7℃
湿度93%
気圧1014hPa
METARUHWW 191130Z VRB01MPS 9000 OVC040 07/06 Q1014 R25L/0///70 NOSIG RMK QFE759
過去の天気等 Google飛行場航空写真 Wunderground天気予報

過去48時間のMETAR

飛行場予報(TAF)
発表時間: 4/19 21:00 VLAT (4/19 11:00 UTC)
予報対象時間: 19日22時 VLAT ~ 20日22時 VLAT
風向・風速北西 3m/s
視程3,100m
天気現象もや
全天の8割程度の雲 雲底高度 340m
全天の8割程度の雲 雲底高度 910m
19日22時 VLAT ~ 20日1時 VLAT に一時的に
視程300m
天気現象
全天を覆う雲 鉛直視程 60m
20日9時 VLAT ~ 20日11時 VLAT に徐々に
視程3,500m
天気現象もや
全天の8割程度の雲 雲底高度 340m
全天の8割程度の雲 雲底高度 610m
20日13時 VLAT から
風向・風速南南西 3m/s
視程10km以上
全天の8割程度の雲 雲底高度 760m
TAF UHWW 191100Z 1912/2012 32003MPS 3100 BR BKN011 BKN030
TEMPO 1912/1915 0300 FG VV002
BECMG 1923/2001 3500 BR BKN011 BKN020
FM200300 20003MPS 9999 BKN025